createdAt,value
2016-09-30T00:00:32.137Z,47.41
2016-09-30T00:01:32.252Z,47.61
2016-09-30T00:02:32.175Z,47.41
2016-09-30T00:03:32.197Z,47.31
2016-09-30T00:04:32.433Z,47.31
2016-09-30T00:05:32.247Z,47.31
2016-09-30T00:06:32.272Z,47.13
2016-09-30T00:07:32.298Z,47.61
2016-09-30T00:08:32.344Z,47.13
2016-09-30T00:09:32.349Z,47.61
2016-09-30T00:10:32.365Z,47.51
2016-09-30T00:11:32.389Z,47.51
2016-09-30T00:12:32.417Z,47.22
2016-09-30T00:13:32.441Z,47.7
2016-09-30T00:14:32.463Z,47.8
2016-09-30T00:15:32.488Z,47.61
2016-09-30T00:16:32.510Z,47.31
2016-09-30T00:17:32.534Z,47.13
2016-09-30T00:18:32.558Z,47.51
2016-09-30T00:19:32.587Z,47.51
2016-09-30T00:20:32.606Z,47.61
2016-09-30T00:21:32.631Z,47.31
2016-09-30T00:22:32.665Z,47.51
2016-09-30T00:23:32.678Z,47.89
2016-09-30T00:24:32.708Z,47.7
2016-09-30T00:25:32.732Z,47.8
2016-09-30T00:26:32.746Z,47.89
2016-09-30T00:27:32.774Z,47.8
2016-09-30T00:28:32.804Z,47.8
2016-09-30T00:29:32.830Z,47.89
2016-09-30T00:30:32.846Z,47.99
2016-09-30T00:31:32.874Z,47.99
2016-09-30T00:32:32.897Z,48.18
2016-09-30T00:33:32.923Z,48.28
2016-09-30T00:34:32.950Z,48.28
2016-09-30T00:35:32.963Z,48.18
2016-09-30T00:36:32.989Z,48.18
2016-09-30T00:37:33.020Z,48.28
2016-09-30T00:38:33.035Z,48.16
2016-09-30T00:39:33.070Z,48.28
2016-09-30T00:40:33.083Z,48.18
2016-09-30T00:41:33.117Z,48.18
2016-09-30T00:42:33.130Z,48.16
2016-09-30T00:43:33.160Z,48.28
2016-09-30T00:44:33.182Z,48.25
2016-09-30T00:45:33.208Z,48.08
2016-09-30T00:46:33.233Z,48.16
2016-09-30T00:47:33.256Z,48.25
2016-09-30T00:48:33.275Z,48.28
2016-09-30T00:49:33.297Z,48.25
2016-09-30T00:50:33.407Z,48.25
2016-09-30T00:51:33.357Z,48.74
2016-09-30T00:52:33.376Z,48.28
2016-09-30T00:53:33.714Z,48.08
2016-09-30T00:54:33.423Z,47.97
2016-09-30T00:55:33.442Z,48.08
2016-09-30T00:56:33.462Z,48.07
2016-09-30T00:57:33.491Z,48.64
2016-09-30T00:58:33.511Z,48.16
2016-09-30T00:59:33.637Z,48.54
2016-09-30T01:00:33.564Z,47.97
2016-09-30T01:01:33.590Z,47.97
2016-09-30T01:02:33.614Z,48.74
2016-09-30T01:03:33.636Z,48.64
2016-09-30T01:04:33.650Z,48.07
2016-09-30T01:05:33.683Z,48.64
2016-09-30T01:06:33.699Z,48.07
2016-09-30T01:07:33.721Z,48.54
2016-09-30T01:08:33.749Z,48.54
2016-09-30T01:09:33.772Z,48.54
2016-09-30T01:10:33.797Z,48.54
2016-09-30T01:11:33.823Z,48.54
2016-09-30T01:12:33.842Z,48.45
2016-09-30T01:13:33.860Z,48.35
2016-09-30T01:14:34.005Z,48.07
2016-09-30T01:15:33.913Z,48.35
2016-09-30T01:16:33.942Z,48.25
2016-09-30T01:17:33.962Z,48.25
2016-09-30T01:18:34.113Z,48.35
2016-09-30T01:19:34.115Z,48.45
2016-09-30T01:20:34.036Z,48.54
2016-09-30T01:21:34.063Z,48.25
2016-09-30T01:22:34.175Z,48.25
2016-09-30T01:23:34.105Z,48.54
2016-09-30T01:24:34.129Z,48.54
2016-09-30T01:25:34.145Z,48.45
2016-09-30T01:26:34.168Z,48.35
2016-09-30T01:27:34.196Z,48.35
2016-09-30T01:28:34.223Z,48.25
2016-09-30T01:29:34.246Z,48.64
2016-09-30T01:30:34.268Z,48.64
2016-09-30T01:31:34.287Z,48.54
2016-09-30T01:32:34.310Z,48.74
2016-09-30T01:33:34.344Z,48.35
2016-09-30T01:34:34.363Z,48.45
2016-09-30T01:35:34.379Z,48.54
2016-09-30T01:36:34.407Z,48.54
2016-09-30T01:37:34.433Z,48.93
2016-09-30T01:38:34.446Z,48.74
2016-09-30T01:39:34.483Z,48.64
2016-09-30T01:40:34.495Z,48.83
2016-09-30T01:41:34.527Z,48.74
2016-09-30T01:42:34.552Z,48.93
2016-09-30T01:43:34.567Z,48.74
2016-09-30T01:44:34.599Z,48.83
2016-09-30T01:45:34.716Z,49.12
2016-09-30T01:46:34.636Z,48.93
2016-09-30T01:47:34.665Z,48.93
2016-09-30T01:48:34.683Z,49.02
2016-09-30T01:49:34.717Z,48.93
2016-09-30T01:50:34.733Z,49.02
2016-09-30T01:51:34.762Z,49.31
2016-09-30T01:52:34.790Z,49.22
2016-09-30T01:53:34.810Z,49.51
2016-09-30T01:54:34.826Z,49.02
2016-09-30T01:55:34.859Z,49.51
2016-09-30T01:56:34.878Z,49.41
2016-09-30T01:57:34.904Z,49.22
2016-09-30T01:58:34.924Z,49.41
2016-09-30T01:59:34.949Z,49.31
2016-09-30T02:00:34.962Z,49.41
2016-09-30T02:01:34.997Z,49.31
2016-09-30T02:02:35.015Z,49.89
2016-09-30T02:03:35.038Z,49.51
2016-09-30T02:04:35.155Z,49.6
2016-09-30T02:05:35.217Z,49.89
2016-09-30T02:06:35.227Z,49.99
2016-09-30T02:07:35.128Z,49.79
2016-09-30T02:08:35.202Z,49.79
2016-09-30T02:09:35.215Z,49.99
2016-09-30T02:10:35.221Z,49.89
2016-09-30T02:11:35.228Z,50.56
2016-09-30T02:12:35.245Z,49.99
2016-09-30T02:13:35.280Z,49.89
2016-09-30T02:14:35.298Z,50.56
2016-09-30T02:15:35.323Z,50.27
2016-09-30T02:16:35.368Z,49.79
2016-09-30T02:17:35.373Z,50.27
2016-09-30T02:18:35.397Z,50.37
2016-09-30T02:19:35.406Z,50.27
2016-09-30T02:20:35.432Z,50.08
2016-09-30T02:21:35.460Z,50.08
2016-09-30T02:22:35.484Z,49.99
2016-09-30T02:23:35.514Z,49.79
2016-09-30T02:24:35.535Z,50.18
2016-09-30T02:25:35.549Z,50.08
2016-09-30T02:26:35.578Z,49.99
2016-09-30T02:27:35.599Z,50.85
2016-09-30T02:28:35.630Z,49.89
2016-09-30T02:29:35.657Z,49.89
2016-09-30T02:30:35.697Z,49.99
2016-09-30T02:31:35.691Z,50.08
2016-09-30T02:32:35.712Z,50.56
2016-09-30T02:33:35.747Z,49.99
2016-09-30T02:34:35.768Z,49.89
2016-09-30T02:35:35.790Z,50.18
2016-09-30T02:36:35.818Z,49.89
2016-09-30T02:37:35.840Z,49.99
2016-09-30T02:38:35.859Z,49.99
2016-09-30T02:39:35.885Z,49.89
2016-09-30T02:40:35.902Z,49.99
2016-09-30T02:41:35.929Z,49.99
2016-09-30T02:42:35.945Z,50.56
2016-09-30T02:43:35.976Z,50.37
2016-09-30T02:44:35.995Z,50.08
2016-09-30T02:45:36.019Z,49.99
2016-09-30T02:46:36.047Z,50.08
2016-09-30T02:47:36.062Z,49.99
2016-09-30T02:48:36.090Z,49.89
2016-09-30T02:49:36.110Z,50.18
2016-09-30T02:50:36.145Z,50.08
2016-09-30T02:51:36.161Z,49.89
2016-09-30T02:52:36.186Z,50.56
2016-09-30T02:53:36.236Z,49.99
2016-09-30T02:54:36.236Z,50.08
2016-09-30T02:55:36.251Z,49.89
2016-09-30T02:56:36.301Z,50.18
2016-09-30T02:57:36.301Z,50.08
2016-09-30T02:58:36.324Z,49.89
2016-09-30T02:59:36.354Z,50.18
2016-09-30T03:00:36.369Z,49.99
2016-09-30T03:01:36.391Z,50.18
2016-09-30T03:02:36.450Z,50.08
2016-09-30T03:03:36.441Z,50.76
2016-09-30T03:04:36.469Z,49.89
2016-09-30T03:05:36.686Z,49.89
2016-09-30T03:06:36.511Z,50.66
2016-09-30T03:07:36.537Z,50.18
2016-09-30T03:08:36.556Z,50.44
2016-09-30T03:09:36.696Z,50.56
2016-09-30T03:10:36.604Z,50.08
2016-09-30T03:11:36.633Z,50.34
2016-09-30T03:12:36.656Z,50.44
2016-09-30T03:13:36.677Z,50.27
2016-09-30T03:14:36.696Z,50.34
2016-09-30T03:15:36.725Z,50.34
2016-09-30T03:16:36.744Z,50.27
2016-09-30T03:17:36.771Z,50.76
2016-09-30T03:18:36.799Z,50.76
2016-09-30T03:19:36.821Z,50.27
2016-09-30T03:20:36.835Z,50.15
2016-09-30T03:21:36.867Z,50.15
2016-09-30T03:22:36.884Z,50.54
2016-09-30T03:23:36.923Z,50.46
2016-09-30T03:24:36.933Z,50.27
2016-09-30T03:25:36.955Z,50.34
2016-09-30T03:26:37.036Z,50.37
2016-09-30T03:27:37.081Z,50.54
2016-09-30T03:28:37.027Z,49.99
2016-09-30T03:29:37.040Z,50.63
2016-09-30T03:30:37.065Z,50.63
2016-09-30T03:31:37.100Z,50.25
2016-09-30T03:32:37.112Z,50.82
2016-09-30T03:33:37.133Z,51.02
2016-09-30T03:34:37.160Z,50.15
2016-09-30T03:35:37.190Z,50.15
2016-09-30T03:36:37.211Z,50.44
2016-09-30T03:37:37.233Z,50.44
2016-09-30T03:38:37.253Z,50.15
2016-09-30T03:39:37.282Z,50.44
2016-09-30T03:40:37.297Z,50.73
2016-09-30T03:41:37.329Z,49.96
2016-09-30T03:42:37.343Z,50.15
2016-09-30T03:43:37.370Z,50.15
2016-09-30T03:44:37.390Z,50.15
2016-09-30T03:45:37.418Z,49.87
2016-09-30T03:46:37.442Z,50.25
2016-09-30T03:47:37.465Z,50.92
2016-09-30T03:48:37.478Z,50.15
2016-09-30T03:49:37.513Z,50.44
2016-09-30T03:50:37.529Z,50.54
2016-09-30T03:51:37.551Z,50.15
2016-09-30T03:52:37.578Z,49.87
2016-09-30T03:53:37.606Z,50.25
2016-09-30T03:54:37.620Z,50.25
2016-09-30T03:55:37.651Z,50.63
2016-09-30T03:56:37.724Z,50.44
2016-09-30T03:57:37.695Z,50.34
2016-09-30T03:58:37.712Z,50.63
2016-09-30T03:59:37.889Z,50.63
2016-09-30T04:00:37.764Z,50.63
2016-09-30T04:01:37.800Z,50.54
2016-09-30T04:02:37.808Z,50.44
2016-09-30T04:03:37.838Z,50.73
2016-09-30T04:04:37.857Z,50.73
2016-09-30T04:05:37.883Z,50.82
2016-09-30T04:06:37.901Z,50.73
2016-09-30T04:07:37.922Z,50.73
2016-09-30T04:08:37.946Z,50.82
2016-09-30T04:09:37.977Z,50.15
2016-09-30T04:10:37.994Z,50.63
2016-09-30T04:11:38.015Z,50.73
2016-09-30T04:12:38.365Z,50.63
2016-09-30T04:13:38.068Z,50.92
2016-09-30T04:14:38.089Z,50.73
2016-09-30T04:15:38.107Z,50.82
2016-09-30T04:16:38.130Z,50.54
2016-09-30T04:17:38.154Z,50.63
2016-09-30T04:18:38.182Z,51.02
2016-09-30T04:19:38.209Z,51.02
2016-09-30T04:20:38.228Z,50.63
2016-09-30T04:21:38.253Z,50.63
2016-09-30T04:22:38.276Z,50.73
2016-09-30T04:23:38.300Z,50.54
2016-09-30T04:24:38.316Z,50.44
2016-09-30T04:25:38.428Z,50.54
2016-09-30T04:26:38.373Z,50.63
2016-09-30T04:27:38.386Z,50.63
2016-09-30T04:28:38.410Z,50.54
2016-09-30T04:29:38.426Z,50.63
2016-09-30T04:30:38.453Z,50.82
2016-09-30T04:31:38.477Z,50.82
2016-09-30T04:32:38.506Z,50.63
2016-09-30T04:33:38.524Z,50.63
2016-09-30T04:34:38.539Z,50.15
2016-09-30T04:35:38.566Z,50.63
2016-09-30T04:36:38.594Z,50.92
2016-09-30T04:37:38.613Z,50.92
2016-09-30T04:38:38.638Z,50.82
2016-09-30T04:39:38.678Z,50.82
2016-09-30T04:40:38.696Z,50.82
2016-09-30T04:41:38.787Z,50.9
2016-09-30T04:42:38.731Z,50.92
2016-09-30T04:43:38.758Z,50.99
2016-09-30T04:44:38.771Z,50.92
2016-09-30T04:45:38.813Z,50.92
2016-09-30T04:46:38.817Z,51.11
2016-09-30T04:47:38.851Z,51.11
2016-09-30T04:48:38.872Z,51.02
2016-09-30T04:49:38.899Z,51.02
2016-09-30T04:50:38.911Z,51.11
2016-09-30T04:51:38.933Z,51.11
2016-09-30T04:52:38.958Z,50.92
2016-09-30T04:53:38.979Z,51.21
2016-09-30T04:54:39.010Z,51.31
2016-09-30T04:55:39.029Z,51.11
2016-09-30T04:56:39.058Z,50.99
2016-09-30T04:57:39.073Z,51.21
2016-09-30T04:58:39.097Z,51.5
2016-09-30T04:59:39.127Z,51.37
2016-09-30T05:00:39.150Z,51.47
2016-09-30T05:01:39.236Z,51.47
2016-09-30T05:02:39.292Z,51.18
2016-09-30T05:03:39.222Z,51.37
2016-09-30T05:04:39.242Z,51.28
2016-09-30T05:05:39.265Z,51.76
2016-09-30T05:06:39.300Z,51.59
2016-09-30T05:07:39.417Z,51.79
2016-09-30T05:08:39.337Z,51.76
2016-09-30T05:09:39.355Z,51.57
2016-09-30T05:10:39.380Z,51.57
2016-09-30T05:11:39.398Z,51.37
2016-09-30T05:12:39.432Z,52.05
2016-09-30T05:13:39.438Z,52.14
2016-09-30T05:14:39.477Z,52.34
2016-09-30T05:15:39.487Z,52.14
2016-09-30T05:16:39.517Z,52.24
2016-09-30T05:17:39.540Z,52.24
2016-09-30T05:18:39.564Z,52.24
2016-09-30T05:19:39.589Z,52.24
2016-09-30T05:20:39.627Z,52.05
2016-09-30T05:21:39.631Z,52.24
2016-09-30T05:22:39.657Z,52.14
2016-09-30T05:23:39.682Z,52.43
2016-09-30T05:24:39.705Z,52.43
2016-09-30T05:25:39.731Z,52.53
2016-09-30T05:26:39.759Z,52.53
2016-09-30T05:27:39.769Z,52.53
2016-09-30T05:28:39.794Z,52.34
2016-09-30T05:29:39.814Z,52.34
2016-09-30T05:30:39.860Z,52.53
2016-09-30T05:31:39.857Z,52.53
2016-09-30T05:32:39.872Z,52.62
2016-09-30T05:33:39.902Z,52.81
2016-09-30T05:34:39.921Z,52.72
2016-09-30T05:35:39.946Z,52.81
2016-09-30T05:36:39.979Z,52.72
2016-09-30T05:37:39.991Z,53.11
2016-09-30T05:38:40.020Z,53.2
2016-09-30T05:39:40.037Z,53.11
2016-09-30T05:40:40.058Z,53.58
2016-09-30T05:41:40.090Z,52.81
2016-09-30T05:42:40.113Z,53.2
2016-09-30T05:43:40.202Z,52.81
2016-09-30T05:44:40.223Z,53.58
2016-09-30T05:45:40.177Z,53.39
2016-09-30T05:46:40.200Z,53.3
2016-09-30T05:47:40.540Z,53.58
2016-09-30T05:48:40.236Z,52.91
2016-09-30T05:49:40.272Z,53.39
2016-09-30T05:50:40.292Z,53.49
2016-09-30T05:51:40.321Z,53.39
2016-09-30T05:52:40.337Z,53.3
2016-09-30T05:53:40.361Z,53.3
2016-09-30T05:54:40.378Z,53.97
2016-09-30T05:55:40.408Z,52.91
2016-09-30T05:56:40.425Z,53.78
2016-09-30T05:57:40.447Z,53.2
2016-09-30T05:58:40.471Z,53.39
2016-09-30T05:59:40.498Z,53.39
2016-09-30T06:00:40.517Z,53.2
2016-09-30T06:01:40.596Z,53.2
2016-09-30T06:02:40.650Z,53.68
2016-09-30T06:03:40.580Z,52.62
2016-09-30T06:04:40.605Z,53.2
2016-09-30T06:05:40.633Z,53.2
2016-09-30T06:06:40.741Z,53.3
2016-09-30T06:07:40.671Z,53.87
2016-09-30T06:08:40.697Z,53.87
2016-09-30T06:09:40.719Z,52.91
2016-09-30T06:10:40.745Z,53.58
2016-09-30T06:11:40.763Z,53.2
2016-09-30T06:12:40.787Z,53.78
2016-09-30T06:13:40.812Z,53.58
2016-09-30T06:14:40.841Z,53.87
2016-09-30T06:15:40.862Z,53.87
2016-09-30T06:16:41.051Z,53.78
2016-09-30T06:17:40.917Z,53.58
2016-09-30T06:18:40.928Z,52.91
2016-09-30T06:19:40.951Z,53.68
2016-09-30T06:20:40.983Z,53.49
2016-09-30T06:21:41.001Z,53.78
2016-09-30T06:22:41.019Z,53.68
2016-09-30T06:23:41.037Z,53.58
2016-09-30T06:24:41.067Z,53.87
2016-09-30T06:25:41.079Z,53.68
2016-09-30T06:26:41.109Z,53.58
2016-09-30T06:27:41.140Z,53.3
2016-09-30T06:28:41.155Z,53.68
2016-09-30T06:29:41.179Z,53.49
2016-09-30T06:30:41.204Z,53.87
2016-09-30T06:31:41.427Z,53.78
2016-09-30T06:32:41.244Z,53.68
2016-09-30T06:33:41.273Z,54.16
2016-09-30T06:34:41.289Z,54.16
2016-09-30T06:35:41.312Z,54.06
2016-09-30T06:36:41.339Z,54.06
2016-09-30T06:37:41.368Z,54.25
2016-09-30T06:38:41.384Z,54.35
2016-09-30T06:39:41.412Z,54.35
2016-09-30T06:40:41.487Z,54.35
2016-09-30T06:41:41.462Z,53.68
2016-09-30T06:42:41.545Z,54.74
2016-09-30T06:43:41.641Z,54.35
2016-09-30T06:44:41.515Z,54.16
2016-09-30T06:45:41.538Z,54.25
2016-09-30T06:46:41.568Z,54.16
2016-09-30T06:47:41.589Z,54.06
2016-09-30T06:48:41.605Z,53.97
2016-09-30T06:49:41.690Z,54.25
2016-09-30T06:50:41.649Z,54.25
2016-09-30T06:51:41.687Z,54.06
2016-09-30T06:52:41.704Z,54.35
2016-09-30T06:53:41.726Z,54.35
2016-09-30T06:54:41.751Z,54.35
2016-09-30T06:55:41.770Z,54.45
2016-09-30T06:56:41.789Z,54.16
2016-09-30T06:57:41.813Z,54.35
2016-09-30T06:58:41.828Z,54.25
2016-09-30T06:59:41.867Z,53.97
2016-09-30T07:00:41.929Z,53.68
2016-09-30T07:01:41.906Z,54.93
2016-09-30T07:02:41.933Z,53.97
2016-09-30T07:03:41.956Z,54.16
2016-09-30T07:04:41.974Z,54.06
2016-09-30T07:05:42.002Z,54.06
2016-09-30T07:06:42.018Z,54.35
2016-09-30T07:07:42.124Z,54.25
2016-09-30T07:08:42.218Z,53.97
2016-09-30T07:09:42.093Z,54.25
2016-09-30T07:10:42.113Z,54.16
2016-09-30T07:11:42.127Z,54.35
2016-09-30T07:12:42.150Z,54.74
2016-09-30T07:13:42.180Z,54.06
2016-09-30T07:14:42.200Z,54.06
2016-09-30T07:15:42.229Z,54.83
2016-09-30T07:16:42.241Z,54.74
2016-09-30T07:17:42.265Z,54.74
2016-09-30T07:18:42.294Z,54.35
2016-09-30T07:19:42.313Z,54.35
2016-09-30T07:20:42.342Z,54.83
2016-09-30T07:21:42.362Z,54.06
2016-09-30T07:22:42.375Z,54.45
2016-09-30T07:23:42.396Z,54.55
2016-09-30T07:24:42.419Z,54.45
2016-09-30T07:25:42.448Z,54.83
2016-09-30T07:26:42.478Z,54.35
2016-09-30T07:27:42.494Z,54.55
2016-09-30T07:28:42.515Z,54.35
2016-09-30T07:29:42.541Z,54.74
2016-09-30T07:30:42.558Z,54.06
2016-09-30T07:31:42.588Z,54.55
2016-09-30T07:32:42.609Z,54.45
2016-09-30T07:33:42.630Z,54.35
2016-09-30T07:34:42.646Z,54.83
2016-09-30T07:35:42.671Z,54.93
2016-09-30T07:36:42.694Z,55.02
2016-09-30T07:37:42.837Z,54.83
2016-09-30T07:38:42.840Z,54.83
2016-09-30T07:39:42.763Z,54.06
2016-09-30T07:40:42.791Z,54.93
2016-09-30T07:41:42.821Z,54.74
2016-09-30T07:42:42.837Z,54.93
2016-09-30T07:43:42.862Z,54.83
2016-09-30T07:44:42.879Z,54.93
2016-09-30T07:45:42.913Z,54.93
2016-09-30T07:46:42.923Z,54.93
2016-09-30T07:47:42.940Z,54.45
2016-09-30T07:48:43.016Z,54.35
2016-09-30T07:49:42.996Z,54.45
2016-09-30T07:50:43.023Z,54.55
2016-09-30T07:51:43.086Z,54.45
2016-09-30T07:52:43.056Z,54.25
2016-09-30T07:53:43.085Z,54.25
2016-09-30T07:54:43.107Z,54.64
2016-09-30T07:55:43.123Z,54.74
2016-09-30T07:56:43.151Z,54.25
2016-09-30T07:57:43.172Z,54.55
2016-09-30T07:58:43.197Z,54.74
2016-09-30T07:59:43.225Z,54.74
2016-09-30T08:00:43.245Z,53.8
2016-09-30T08:01:43.273Z,54.64
2016-09-30T08:02:43.383Z,54.19
2016-09-30T08:03:43.307Z,54.06
2016-09-30T08:04:43.326Z,54.28
2016-09-30T08:05:43.360Z,54.09
2016-09-30T08:06:43.385Z,54.16
2016-09-30T08:07:43.400Z,54.19
2016-09-30T08:08:43.416Z,53.9
2016-09-30T08:09:43.451Z,54.38
2016-09-30T08:10:43.467Z,54.19
2016-09-30T08:11:43.488Z,54.19
2016-09-30T08:12:43.518Z,54.28
2016-09-30T08:13:43.532Z,54.35
2016-09-30T08:14:43.607Z,54.35
2016-09-30T08:15:43.594Z,54
2016-09-30T08:16:43.605Z,54.19
2016-09-30T08:17:43.635Z,54.28
2016-09-30T08:18:43.649Z,54.19
2016-09-30T08:19:43.674Z,54
2016-09-30T08:20:43.697Z,53.8
2016-09-30T08:21:43.724Z,53.9
2016-09-30T08:22:43.745Z,54.09
2016-09-30T08:23:43.766Z,53.61
2016-09-30T08:24:43.800Z,53.52
2016-09-30T08:25:43.812Z,54.09
2016-09-30T08:26:43.841Z,53.7
2016-09-30T08:27:43.860Z,53.7
2016-09-30T08:28:43.882Z,53.7
2016-09-30T08:29:43.892Z,53.9
2016-09-30T08:30:43.921Z,53.61
2016-09-30T08:31:43.942Z,53.9
2016-09-30T08:32:43.987Z,53.52
2016-09-30T08:33:43.995Z,53.61
2016-09-30T08:34:44.021Z,53.32
2016-09-30T08:35:44.038Z,53.8
2016-09-30T08:36:44.172Z,53.61
2016-09-30T08:37:44.089Z,53.7
2016-09-30T08:38:44.109Z,53.7
2016-09-30T08:39:44.134Z,53.61
2016-09-30T08:40:44.162Z,53.7
2016-09-30T08:41:44.173Z,53.8
2016-09-30T08:42:44.203Z,53.8
2016-09-30T08:43:44.225Z,54
2016-09-30T08:44:44.247Z,53.03
2016-09-30T08:45:44.274Z,53.32
2016-09-30T08:46:44.437Z,53.32
2016-09-30T08:47:44.307Z,53.52
2016-09-30T08:48:44.336Z,52.94
2016-09-30T08:49:44.354Z,53.52
2016-09-30T08:50:44.387Z,53.23
2016-09-30T08:51:44.410Z,53.42
2016-09-30T08:52:44.425Z,53.32
2016-09-30T08:53:44.444Z,53.32
2016-09-30T08:54:44.479Z,52.84
2016-09-30T08:55:44.505Z,52.94
2016-09-30T08:56:44.525Z,53.42
2016-09-30T08:57:44.539Z,53.35
2016-09-30T08:58:44.576Z,53.7
2016-09-30T08:59:44.582Z,53.52
2016-09-30T09:00:44.613Z,53.35
2016-09-30T09:01:44.637Z,53.25
2016-09-30T09:02:44.664Z,52.97
2016-09-30T09:03:44.685Z,52.97
2016-09-30T09:04:44.705Z,52.87
2016-09-30T09:05:44.731Z,52.87
2016-09-30T09:06:44.749Z,52.68
2016-09-30T09:07:44.776Z,52.87
2016-09-30T09:08:44.798Z,52.58
2016-09-30T09:09:44.818Z,52.77
2016-09-30T09:10:44.846Z,52.77
2016-09-30T09:11:44.864Z,52.77
2016-09-30T09:12:44.895Z,52.87
2016-09-30T09:13:44.905Z,52.77
2016-09-30T09:14:44.945Z,52.39
2016-09-30T09:15:44.963Z,52.58
2016-09-30T09:16:44.983Z,52.2
2016-09-30T09:17:44.998Z,52.29
2016-09-30T09:18:45.035Z,52.2
2016-09-30T09:19:45.063Z,52.2
2016-09-30T09:20:45.075Z,52.1
2016-09-30T09:21:45.099Z,51.81
2016-09-30T09:22:45.131Z,51.84
2016-09-30T09:23:45.149Z,51.72
2016-09-30T09:24:45.168Z,51.81
2016-09-30T09:25:45.189Z,51.93
2016-09-30T09:26:45.218Z,52
2016-09-30T09:27:45.242Z,51.55
2016-09-30T09:28:45.259Z,51.35
2016-09-30T09:29:45.285Z,51.26
2016-09-30T09:30:45.303Z,51.74
2016-09-30T09:31:45.325Z,51.45
2016-09-30T09:32:45.351Z,51.55
2016-09-30T09:33:45.384Z,51.45
2016-09-30T09:34:45.394Z,51.35
2016-09-30T09:35:45.427Z,51.26
2016-09-30T09:36:45.448Z,51.07
2016-09-30T09:37:45.468Z,50.97
2016-09-30T09:38:45.495Z,51.26
2016-09-30T09:39:45.640Z,51.45
2016-09-30T09:40:45.821Z,50.78
2016-09-30T09:41:45.564Z,50.78
2016-09-30T09:42:46.125Z,50.97
2016-09-30T09:43:45.617Z,50.78
2016-09-30T09:44:45.628Z,50.78
2016-09-30T09:45:45.663Z,50.78
2016-09-30T09:46:45.680Z,50.59
2016-09-30T09:47:45.708Z,50.59
2016-09-30T09:48:45.731Z,50.68
2016-09-30T09:49:45.747Z,50.68
2016-09-30T09:50:45.772Z,50.59
2016-09-30T09:51:45.793Z,50.59
2016-09-30T09:52:45.820Z,50.59
2016-09-30T09:53:45.847Z,50.59
2016-09-30T09:54:45.869Z,50.59
2016-09-30T09:55:45.890Z,50.78
2016-09-30T09:56:45.919Z,50.4
2016-09-30T09:57:45.936Z,50.2
2016-09-30T09:58:45.969Z,50.1
2016-09-30T09:59:45.984Z,50.87
2016-09-30T10:00:46.011Z,50.59
2016-09-30T10:01:46.028Z,50.4
2016-09-30T10:02:46.055Z,50.4
2016-09-30T10:03:46.088Z,50.3
2016-09-30T10:04:46.101Z,50.2
2016-09-30T10:05:46.130Z,50.4
2016-09-30T10:06:46.159Z,50.49
2016-09-30T10:07:46.175Z,50.2
2016-09-30T10:08:46.195Z,50.2
2016-09-30T10:09:46.216Z,50.32
2016-09-30T10:10:46.248Z,50.97
2016-09-30T10:11:46.267Z,50.2
2016-09-30T10:12:46.298Z,50.51
2016-09-30T10:13:46.316Z,50.61
2016-09-30T10:14:46.337Z,50.59
2016-09-30T10:15:46.359Z,50.49
2016-09-30T10:16:46.389Z,50.3
2016-09-30T10:17:46.415Z,50.61
2016-09-30T10:18:46.429Z,50.71
2016-09-30T10:19:46.459Z,50.71
2016-09-30T10:20:46.478Z,50.81
2016-09-30T10:21:46.509Z,50.71
2016-09-30T10:22:46.530Z,50.71
2016-09-30T10:23:46.555Z,50.61
2016-09-30T10:24:46.571Z,50.81
2016-09-30T10:25:46.595Z,50.51
2016-09-30T10:26:46.627Z,50.71
2016-09-30T10:27:46.647Z,50.54
2016-09-30T10:28:46.676Z,50.35
2016-09-30T10:29:46.689Z,50.32
2016-09-30T10:30:46.724Z,49.87
2016-09-30T10:31:46.739Z,49.38
2016-09-30T10:32:46.770Z,49.19
2016-09-30T10:33:46.784Z,48.52
2016-09-30T10:34:46.815Z,49
2016-09-30T10:35:46.841Z,48.61
2016-09-30T10:36:46.860Z,48.52
2016-09-30T10:37:46.899Z,48.61
2016-09-30T10:38:46.920Z,48.61
2016-09-30T10:39:46.929Z,48.71
2016-09-30T10:40:46.954Z,48.61
2016-09-30T10:41:46.975Z,48.43
2016-09-30T10:42:47.010Z,48.52
2016-09-30T10:43:47.031Z,48.43
2016-09-30T10:44:47.049Z,48.64
2016-09-30T10:45:47.071Z,48.25
2016-09-30T10:46:47.099Z,48.35
2016-09-30T10:47:47.130Z,48.06
2016-09-30T10:48:47.153Z,47.87
2016-09-30T10:49:47.174Z,47.39
2016-09-30T10:50:47.525Z,47.87
2016-09-30T10:51:47.225Z,47.58
2016-09-30T10:52:47.247Z,47.58
2016-09-30T10:53:47.273Z,47
2016-09-30T10:54:47.601Z,47.1
2016-09-30T10:55:47.315Z,47.49
2016-09-30T10:56:47.342Z,47.29
2016-09-30T10:57:47.360Z,47.19
2016-09-30T10:58:47.384Z,47.19
2016-09-30T10:59:47.407Z,47.19
2016-09-30T11:00:47.438Z,47
2016-09-30T11:01:47.463Z,46.91
2016-09-30T11:02:47.488Z,46.91
2016-09-30T11:03:47.513Z,46.81
2016-09-30T11:04:47.540Z,47
2016-09-30T11:05:47.563Z,46.62
2016-09-30T11:06:47.581Z,46.42
2016-09-30T11:07:47.604Z,46.81
2016-09-30T11:08:47.632Z,46.62
2016-09-30T11:09:47.656Z,46.71
2016-09-30T11:10:47.680Z,46.52
2016-09-30T11:11:47.705Z,46.62
2016-09-30T11:12:47.730Z,46.71
2016-09-30T11:13:47.756Z,46.33
2016-09-30T11:15:47.829Z,46.23
2016-09-30T11:16:47.830Z,46.42
2016-09-30T11:17:47.841Z,46.62
2016-09-30T11:18:47.871Z,46.42
2016-09-30T11:19:47.895Z,46.14
2016-09-30T11:20:47.923Z,46.52
2016-09-30T11:21:47.941Z,46.62
2016-09-30T11:22:47.970Z,46.33
2016-09-30T11:23:47.998Z,46.42
2016-09-30T11:24:48.034Z,46.42
2016-09-30T11:25:48.041Z,46.23
2016-09-30T11:26:48.070Z,46.14
2016-09-30T11:27:48.087Z,46.04
2016-09-30T11:28:48.111Z,45.94
2016-09-30T11:29:48.140Z,46.04
2016-09-30T11:30:48.159Z,46.23
2016-09-30T11:31:48.187Z,46.04
2016-09-30T11:32:48.207Z,46.33
2016-09-30T11:33:48.233Z,46.23
2016-09-30T11:34:48.257Z,46.42
2016-09-30T11:35:48.287Z,46.4
2016-09-30T11:36:48.323Z,46.42
2016-09-30T11:37:48.337Z,46.4
2016-09-30T11:38:48.358Z,46.52
2016-09-30T11:39:48.384Z,46.69
2016-09-30T11:40:48.418Z,46.21
2016-09-30T11:41:48.428Z,46.11
2016-09-30T11:42:48.450Z,46.23
2016-09-30T11:43:48.475Z,46.11
2016-09-30T11:44:48.502Z,46.21
2016-09-30T11:45:48.520Z,46.11
2016-09-30T11:46:48.560Z,46.21
2016-09-30T11:47:48.579Z,46.21
2016-09-30T11:48:48.596Z,46.21
2016-09-30T11:49:48.626Z,46.5
2016-09-30T11:50:48.648Z,46.5
2016-09-30T11:51:48.674Z,46.21
2016-09-30T11:52:48.699Z,46.5
2016-09-30T11:53:48.727Z,46.4
2016-09-30T11:54:48.747Z,46.5
2016-09-30T11:55:48.765Z,46.31
2016-09-30T11:56:48.800Z,46.69
2016-09-30T11:57:48.824Z,46.31
2016-09-30T11:58:48.851Z,46.5
2016-09-30T11:59:48.866Z,46.78
2016-09-30T12:00:48.895Z,46.31
2016-09-30T12:01:48.922Z,46.59
2016-09-30T12:02:48.940Z,46.59
2016-09-30T12:03:48.964Z,46.59
2016-09-30T12:04:48.990Z,46.69
2016-09-30T12:05:49.010Z,46.59
2016-09-30T12:06:49.036Z,46.88
2016-09-30T12:07:49.057Z,46.59
2016-09-30T12:08:49.081Z,46.98
2016-09-30T12:09:49.109Z,47.17
2016-09-30T12:10:49.142Z,46.78
2016-09-30T12:11:49.185Z,46.88
2016-09-30T12:12:49.190Z,47.08
2016-09-30T12:13:49.207Z,46.95
2016-09-30T12:14:49.271Z,47.36
2016-09-30T12:15:49.257Z,47.15
2016-09-30T12:16:49.282Z,47.36
2016-09-30T12:17:49.307Z,47.44
2016-09-30T12:18:49.325Z,47.53
2016-09-30T12:19:49.347Z,47.36
2016-09-30T12:20:49.377Z,46.98
2016-09-30T12:21:49.401Z,47.24
2016-09-30T12:22:49.430Z,47.24
2016-09-30T12:23:49.448Z,47.63
2016-09-30T12:24:49.470Z,47.53
2016-09-30T12:25:49.495Z,47.44
2016-09-30T12:26:49.519Z,47.82
2016-09-30T12:27:49.536Z,47.63
2016-09-30T12:28:49.564Z,47.72
2016-09-30T12:29:49.591Z,47.72
2016-09-30T12:30:49.623Z,47.63
2016-09-30T12:31:49.639Z,47.63
2016-09-30T12:32:49.656Z,47.82
2016-09-30T12:33:49.686Z,47.72
2016-09-30T12:34:49.708Z,47.82
2016-09-30T12:35:49.740Z,48.11
2016-09-30T12:36:49.759Z,47.82
2016-09-30T12:37:49.783Z,48.02
2016-09-30T12:38:49.804Z,48.11
2016-09-30T12:39:49.825Z,48.21
2016-09-30T12:40:49.856Z,48.11
2016-09-30T12:41:49.887Z,48.11
2016-09-30T12:42:49.915Z,48.21
2016-09-30T12:43:49.927Z,48.3
2016-09-30T12:44:49.972Z,48.21
2016-09-30T12:45:49.980Z,48.21
2016-09-30T12:46:49.995Z,48.3
2016-09-30T12:47:50.178Z,48.02
2016-09-30T12:48:50.042Z,48.69
2016-09-30T12:49:50.066Z,48.69
2016-09-30T12:50:50.214Z,48.59
2016-09-30T12:51:50.204Z,48.49
2016-09-30T12:52:50.241Z,48.49
2016-09-30T12:53:50.251Z,48.11
2016-09-30T12:54:50.249Z,48.4
2016-09-30T12:55:50.258Z,48.3
2016-09-30T12:56:50.270Z,48.3